createdAt,value
2022-11-28T00:01:38.041Z,8.76
2022-11-28T00:04:06.868Z,8.75
2022-11-28T00:06:38.748Z,8.76
2022-11-28T00:09:07.310Z,8.79
2022-11-28T00:11:35.745Z,8.81
2022-11-28T00:14:03.922Z,8.83
2022-11-28T00:16:32.132Z,8.82
2022-11-28T00:19:01.490Z,8.79
2022-11-28T00:21:30.709Z,8.76
2022-11-28T00:24:01.105Z,8.72
2022-11-28T00:26:31.259Z,8.71
2022-11-28T00:29:00.228Z,8.70
2022-11-28T00:31:31.149Z,8.70
2022-11-28T00:33:59.240Z,8.71
2022-11-28T00:36:27.456Z,8.74
2022-11-28T00:38:55.488Z,8.77
2022-11-28T00:41:27.340Z,8.82
2022-11-28T00:43:55.427Z,8.87
2022-11-28T00:46:24.559Z,8.92
2022-11-28T00:48:52.788Z,8.97
2022-11-28T00:51:22.405Z,9.03
2022-11-28T00:53:52.574Z,9.07
2022-11-28T00:56:23.676Z,9.09
2022-11-28T00:58:53.587Z,9.09
2022-11-28T01:01:23.500Z,9.12
2022-11-28T01:03:53.001Z,9.11
2022-11-28T01:06:25.584Z,9.10
2022-11-28T01:08:54.565Z,9.08
2022-11-28T01:11:23.359Z,9.05
2022-11-28T01:13:54.971Z,8.99
2022-11-28T01:16:23.436Z,8.91
2022-11-28T01:18:51.559Z,8.84
2022-11-28T01:21:20.265Z,8.78
2022-11-28T01:23:48.505Z,8.72
2022-11-28T01:26:19.288Z,8.66
2022-11-28T01:28:47.783Z,8.63
2022-11-28T01:31:20.089Z,8.63
2022-11-28T01:33:48.430Z,8.61
2022-11-28T01:36:17.489Z,8.62
2022-11-28T01:38:45.982Z,8.63
2022-11-28T01:41:14.763Z,8.67
2022-11-28T01:44:01.386Z,8.67
2022-11-28T01:46:31.726Z,8.70
2022-11-28T01:49:04.291Z,8.72
2022-11-28T01:51:33.729Z,8.73
2022-11-28T01:54:02.624Z,8.78
2022-11-28T01:56:36.727Z,8.80
2022-11-28T01:59:08.326Z,8.83
2022-11-28T02:01:38.480Z,8.87
2022-11-28T02:04:06.637Z,8.93
2022-11-28T02:06:34.916Z,8.94
2022-11-28T02:09:03.035Z,8.88
2022-11-28T02:12:12.531Z,8.78
2022-11-28T02:14:58.269Z,8.69
2022-11-28T02:17:39.124Z,8.62
2022-11-28T02:20:38.217Z,8.59
2022-11-28T02:23:12.638Z,8.54
2022-11-28T02:26:33.935Z,8.50
2022-11-28T02:29:26.864Z,8.50
2022-11-28T02:32:16.044Z,8.51
2022-11-28T02:34:55.166Z,8.51
2022-11-28T02:37:31.073Z,8.54
2022-11-28T02:40:08.789Z,8.55
2022-11-28T02:42:48.973Z,8.59
2022-11-28T02:45:24.861Z,8.61
2022-11-28T02:48:00.077Z,8.61
2022-11-28T02:50:33.531Z,8.57
2022-11-28T02:53:07.485Z,8.52
2022-11-28T02:55:40.229Z,8.48
2022-11-28T02:58:08.764Z,8.46
2022-11-28T03:00:39.339Z,8.46
2022-11-28T03:03:49.119Z,8.51
2022-11-28T03:06:30.144Z,8.58
2022-11-28T03:09:16.086Z,8.61
2022-11-28T03:11:51.683Z,8.65
2022-11-28T03:14:29.958Z,8.69
2022-11-28T03:17:10.841Z,8.74
2022-11-28T03:19:43.908Z,8.79
2022-11-28T03:22:27.437Z,8.83
2022-11-28T03:25:01.861Z,8.87
2022-11-28T03:27:35.501Z,8.90
2022-11-28T03:30:09.688Z,8.90
2022-11-28T03:32:40.617Z,8.90
2022-11-28T03:35:13.647Z,8.88
2022-11-28T03:37:49.366Z,8.83
2022-11-28T03:40:23.060Z,8.80
2022-11-28T03:42:55.979Z,8.78
2022-11-28T03:45:26.570Z,8.79
2022-11-28T03:47:59.694Z,8.79
2022-11-28T03:50:35.245Z,8.82
2022-11-28T03:53:08.861Z,8.85
2022-11-28T03:55:42.058Z,8.86
2022-11-28T03:58:15.978Z,8.84
2022-11-28T04:00:58.254Z,8.82
2022-11-28T04:03:37.346Z,8.75
2022-11-28T04:06:16.159Z,8.71
2022-11-28T04:08:51.003Z,8.67
2022-11-28T04:11:21.842Z,8.65
2022-11-28T04:13:55.752Z,8.58
2022-11-28T04:16:30.185Z,8.55
2022-11-28T04:19:05.826Z,8.50
2022-11-28T04:21:39.970Z,8.45
2022-11-28T04:24:13.684Z,8.44
2022-11-28T04:26:48.086Z,8.41
2022-11-28T04:29:19.597Z,8.40
2022-11-28T04:31:51.951Z,8.37
2022-11-28T04:34:21.637Z,8.37
2022-11-28T04:36:51.094Z,8.35
2022-11-28T04:39:22.997Z,8.33
2022-11-28T04:41:54.882Z,8.31
2022-11-28T04:44:28.945Z,8.28
2022-11-28T04:46:59.066Z,8.24
2022-11-28T04:49:29.112Z,8.23
2022-11-28T04:52:05.894Z,8.19
2022-11-28T04:54:42.427Z,8.17
2022-11-28T04:57:17.668Z,8.18
2022-11-28T04:59:46.390Z,8.18
2022-11-28T05:02:17.133Z,8.13
2022-11-28T05:04:46.093Z,8.07
2022-11-28T05:07:14.142Z,8.01
2022-11-28T05:09:43.566Z,7.96
2022-11-28T05:12:11.662Z,7.92
2022-11-28T05:14:41.064Z,7.88
2022-11-28T05:17:10.917Z,7.85
2022-11-28T05:19:38.863Z,7.86
2022-11-28T05:22:06.857Z,7.86
2022-11-28T05:24:34.847Z,7.85
2022-11-28T05:27:04.465Z,7.87
2022-11-28T05:29:32.503Z,7.87
2022-11-28T05:32:00.555Z,7.85
2022-11-28T05:34:29.866Z,7.83
2022-11-28T05:36:57.871Z,7.79
2022-11-28T05:39:27.043Z,7.76
2022-11-28T05:41:56.079Z,7.71
2022-11-28T05:44:27.185Z,7.66
2022-11-28T05:46:56.025Z,7.60
2022-11-28T05:49:25.594Z,7.59
2022-11-28T05:51:53.622Z,7.57
2022-11-28T05:54:21.739Z,7.56
2022-11-28T05:56:49.726Z,7.58
2022-11-28T05:59:17.783Z,7.65
2022-11-28T06:01:47.266Z,7.74
2022-11-28T06:04:15.325Z,7.80
2022-11-28T06:06:43.314Z,7.85
2022-11-28T06:09:11.401Z,7.91
2022-11-28T06:11:39.347Z,7.95
2022-11-28T06:14:07.284Z,7.97
2022-11-28T06:16:35.303Z,8.00
2022-11-28T06:19:06.914Z,8.02
2022-11-28T06:21:35.052Z,8.03
2022-11-28T06:24:03.059Z,8.04
2022-11-28T06:26:31.197Z,8.06
2022-11-28T06:28:59.371Z,8.08
2022-11-28T06:31:30.048Z,8.09
2022-11-28T06:33:58.683Z,8.11
2022-11-28T06:36:28.561Z,8.13
2022-11-28T06:38:56.578Z,8.15
2022-11-28T06:41:24.689Z,8.13
2022-11-28T06:43:52.636Z,8.15
2022-11-28T06:46:22.120Z,8.16
2022-11-28T06:48:51.794Z,8.17
2022-11-28T06:51:20.690Z,8.17
2022-11-28T06:53:50.520Z,8.18
2022-11-28T06:56:20.550Z,8.17
2022-11-28T06:58:54.321Z,8.17
2022-11-28T07:01:24.113Z,8.16
2022-11-28T07:03:54.454Z,8.16
2022-11-28T07:06:23.982Z,8.13
2022-11-28T07:08:53.806Z,8.12
2022-11-28T07:11:24.153Z,8.12
2022-11-28T07:13:52.790Z,8.11
2022-11-28T07:16:23.432Z,8.10
2022-11-28T07:18:52.008Z,8.12
2022-11-28T07:21:20.445Z,8.13
2022-11-28T07:23:49.523Z,8.14
2022-11-28T07:26:21.465Z,8.15
2022-11-28T07:28:51.306Z,8.17
2022-11-28T07:31:21.136Z,8.18
2022-11-28T07:33:51.033Z,8.19
2022-11-28T07:36:21.630Z,8.20
2022-11-28T07:38:50.772Z,8.22
2022-11-28T07:41:26.063Z,8.24
2022-11-28T07:43:56.576Z,8.23
2022-11-28T07:46:25.960Z,8.23
2022-11-28T07:48:54.738Z,8.19
2022-11-28T07:51:24.780Z,8.15
2022-11-28T07:54:11.628Z,8.09
2022-11-28T07:57:13.180Z,8.04
2022-11-28T07:59:30.933Z,8.03
2022-11-28T08:01:59.358Z,8.01
2022-11-28T08:04:27.493Z,7.96
2022-11-28T08:06:57.049Z,7.92
2022-11-28T08:09:25.068Z,7.90
2022-11-28T08:11:54.520Z,7.91
2022-11-28T08:14:22.835Z,7.95
2022-11-28T08:16:52.351Z,8.02
2022-11-28T08:19:24.533Z,8.08
2022-11-28T08:21:52.910Z,8.13
2022-11-28T08:24:21.184Z,8.16
2022-11-28T08:26:49.290Z,8.19
2022-11-28T08:29:18.760Z,8.23
2022-11-28T08:31:47.580Z,8.24
2022-11-28T08:34:15.791Z,8.25
2022-11-28T08:36:44.102Z,8.28
2022-11-28T08:39:28.280Z,8.31
2022-11-28T08:41:59.033Z,8.35
2022-11-28T08:44:42.664Z,8.38
2022-11-28T08:47:11.440Z,8.44
2022-11-28T08:49:40.016Z,8.48
2022-11-28T08:52:08.246Z,8.51
2022-11-28T08:54:36.275Z,8.58
2022-11-28T08:57:04.346Z,8.65
2022-11-28T08:59:33.746Z,8.70
2022-11-28T09:02:01.933Z,8.74
2022-11-28T09:04:30.414Z,8.76
2022-11-28T09:06:58.401Z,8.73
2022-11-28T09:09:31.462Z,8.74
2022-11-28T09:12:00.693Z,8.77
2022-11-28T09:14:28.917Z,8.80
2022-11-28T09:16:58.557Z,8.86
2022-11-28T09:19:26.730Z,8.93
2022-11-28T09:21:57.832Z,9.01
2022-11-28T09:24:26.123Z,9.05
2022-11-28T09:26:54.101Z,9.01
2022-11-28T09:29:22.096Z,8.95
2022-11-28T09:31:50.045Z,8.87
2022-11-28T09:34:19.393Z,8.79
2022-11-28T09:36:47.488Z,8.75
2022-11-28T09:39:15.531Z,8.73
2022-11-28T09:42:01.213Z,8.70
2022-11-28T09:44:37.802Z,8.66
2022-11-28T09:47:12.134Z,8.58
2022-11-28T09:49:48.339Z,8.54
2022-11-28T09:52:29.122Z,8.55
2022-11-28T09:55:07.392Z,8.58
2022-11-28T09:57:38.351Z,8.64
2022-11-28T10:00:09.111Z,8.66
2022-11-28T10:02:42.321Z,8.67
2022-11-28T10:05:21.709Z,8.66
2022-11-28T10:08:01.635Z,8.62
2022-11-28T10:10:41.098Z,8.55
2022-11-28T10:13:17.522Z,8.52
2022-11-28T10:15:54.555Z,8.57
2022-11-28T10:18:36.495Z,8.63
2022-11-28T10:21:17.206Z,8.64
2022-11-28T10:23:48.153Z,8.64
2022-11-28T10:26:22.243Z,8.65
2022-11-28T10:28:53.818Z,8.72
2022-11-28T10:31:32.238Z,8.78
2022-11-28T10:34:08.398Z,8.82
2022-11-28T10:36:52.159Z,8.85
2022-11-28T10:39:20.369Z,8.93
2022-11-28T10:42:11.701Z,8.99
2022-11-28T10:44:48.458Z,9.03
2022-11-28T10:47:25.172Z,9.08
2022-11-28T10:50:05.261Z,9.20
2022-11-28T10:52:45.843Z,9.41
2022-11-28T10:55:28.443Z,9.57
2022-11-28T10:58:05.911Z,9.71
2022-11-28T11:00:36.418Z,9.80
2022-11-28T11:03:06.160Z,9.90
2022-11-28T11:05:36.725Z,9.96
2022-11-28T11:08:19.200Z,10.01
2022-11-28T11:10:50.667Z,10.11
2022-11-28T11:13:22.264Z,10.21
2022-11-28T11:15:53.094Z,10.23
2022-11-28T11:18:26.602Z,10.03
2022-11-28T11:21:09.535Z,9.60
2022-11-28T11:23:39.014Z,9.29
2022-11-28T11:26:10.397Z,9.11
2022-11-28T11:28:43.087Z,8.97
2022-11-28T11:31:24.704Z,8.92
2022-11-28T11:33:55.880Z,8.90
2022-11-28T11:36:27.811Z,8.92
2022-11-28T11:39:21.807Z,8.92
2022-11-28T11:41:52.087Z,8.92
2022-11-28T11:44:35.600Z,9.01
2022-11-28T11:47:06.236Z,9.05
2022-11-28T11:49:36.468Z,9.06
2022-11-28T11:52:07.412Z,9.10
2022-11-28T11:54:38.250Z,9.14
2022-11-28T11:57:33.106Z,9.14
2022-11-28T12:00:00.095Z,9.11
2022-11-28T12:02:37.046Z,9.09
2022-11-28T12:05:11.760Z,9.09
2022-11-28T12:07:47.662Z,9.15
2022-11-28T12:10:24.206Z,9.21
2022-11-28T12:12:52.394Z,9.34
2022-11-28T12:15:31.212Z,9.46
2022-11-28T12:18:13.729Z,9.54
2022-11-28T12:20:56.265Z,9.60
2022-11-28T12:23:50.787Z,9.68
2022-11-28T12:26:27.192Z,9.83
2022-11-28T12:29:15.585Z,9.92
2022-11-28T12:31:53.130Z,9.97
2022-11-28T12:34:34.007Z,9.97
2022-11-28T12:37:16.626Z,10.04
2022-11-28T12:39:56.843Z,10.10
2022-11-28T12:42:38.666Z,10.09
2022-11-28T12:45:34.198Z,10.08
2022-11-28T12:48:19.690Z,10.10
2022-11-28T12:50:51.632Z,10.09
2022-11-28T12:53:40.109Z,9.70
2022-11-28T12:56:17.187Z,9.41
2022-11-28T12:58:52.191Z,9.26
2022-11-28T13:01:35.692Z,9.22
2022-11-28T13:04:15.270Z,9.27
2022-11-28T13:06:54.639Z,9.36
2022-11-28T13:09:32.091Z,9.47
2022-11-28T13:12:16.722Z,9.58
2022-11-28T13:14:53.447Z,9.66
2022-11-28T13:17:32.112Z,9.77
2022-11-28T13:20:09.814Z,9.88
2022-11-28T13:22:48.874Z,9.94
2022-11-28T13:25:26.879Z,10.07
2022-11-28T13:28:04.629Z,10.22
2022-11-28T13:30:40.349Z,10.41
2022-11-28T13:33:23.723Z,10.53
2022-11-28T13:35:53.706Z,10.52
2022-11-28T13:38:37.894Z,10.51
2022-11-28T13:41:35.285Z,10.57
2022-11-28T13:44:09.856Z,10.65
2022-11-28T13:46:39.699Z,10.82
2022-11-28T13:49:15.514Z,10.93
2022-11-28T13:51:48.769Z,11.00
2022-11-28T13:54:45.823Z,10.97
2022-11-28T13:57:27.357Z,11.00
2022-11-28T14:00:04.183Z,11.02
2022-11-28T14:02:43.320Z,11.01
2022-11-28T14:05:32.518Z,11.01
2022-11-28T14:08:04.808Z,10.96
2022-11-28T14:10:53.463Z,10.87
2022-11-28T14:13:39.184Z,10.85
2022-11-28T14:16:22.533Z,10.94
2022-11-28T14:19:14.687Z,11.09
2022-11-28T14:21:58.971Z,11.14
2022-11-28T14:24:41.967Z,11.13
2022-11-28T14:27:19.518Z,11.12
2022-11-28T14:29:51.506Z,11.09
2022-11-28T14:32:31.249Z,11.03
2022-11-28T14:35:01.778Z,10.97
2022-11-28T14:37:53.113Z,10.95
2022-11-28T14:41:06.967Z,10.86
2022-11-28T14:43:40.158Z,10.82
2022-11-28T14:46:29.880Z,10.75
2022-11-28T14:49:23.050Z,10.69
2022-11-28T14:52:41.788Z,10.62
2022-11-28T14:55:22.147Z,10.64
2022-11-28T14:57:57.154Z,10.71
2022-11-28T15:00:27.918Z,10.76
2022-11-28T15:03:11.295Z,10.75
2022-11-28T15:05:44.116Z,10.70
2022-11-28T15:08:34.036Z,10.64
2022-11-28T15:11:22.883Z,10.59
2022-11-28T15:14:09.631Z,10.59
2022-11-28T15:16:46.612Z,10.61
2022-11-28T15:19:24.978Z,10.63
2022-11-28T15:21:55.147Z,10.68
2022-11-28T15:24:28.038Z,10.70
2022-11-28T15:26:58.279Z,10.70
2022-11-28T15:29:28.553Z,10.65
2022-11-28T15:32:00.086Z,10.62
2022-11-28T15:34:31.274Z,10.61
2022-11-28T15:37:02.060Z,10.61
2022-11-28T15:39:36.404Z,10.63
2022-11-28T15:42:08.452Z,10.68
2022-11-28T15:44:38.363Z,10.71
2022-11-28T15:47:16.157Z,10.71
2022-11-28T15:49:46.074Z,10.42
2022-11-28T15:52:18.979Z,9.95
2022-11-28T15:54:51.834Z,9.61
2022-11-28T15:57:21.158Z,9.41
2022-11-28T15:59:49.133Z,9.30
2022-11-28T16:02:23.709Z,9.24
2022-11-28T16:04:56.122Z,9.20
2022-11-28T16:07:24.084Z,9.17
2022-11-28T16:10:00.619Z,9.16
2022-11-28T16:12:29.852Z,9.15
2022-11-28T16:15:01.989Z,9.14
2022-11-28T16:17:33.224Z,9.13
2022-11-28T16:20:03.680Z,9.10
2022-11-28T16:22:36.234Z,9.12
2022-11-28T16:25:22.836Z,9.17
2022-11-28T16:27:53.346Z,9.22
2022-11-28T16:30:47.568Z,9.29
2022-11-28T16:33:37.594Z,9.37
2022-11-28T16:36:11.777Z,9.45
2022-11-28T16:38:40.292Z,9.49
2022-11-28T16:41:16.791Z,9.51
2022-11-28T16:43:48.723Z,9.51
2022-11-28T16:46:22.862Z,9.51
2022-11-28T16:48:55.509Z,9.52
2022-11-28T16:51:35.750Z,9.54
2022-11-28T16:54:28.927Z,9.52
2022-11-28T16:57:14.697Z,9.43
2022-11-28T16:59:43.392Z,9.33
2022-11-28T17:02:17.082Z,9.26
2022-11-28T17:04:46.005Z,9.19
2022-11-28T17:07:16.976Z,9.12
2022-11-28T17:09:47.134Z,9.09
2022-11-28T17:12:33.376Z,9.03
2022-11-28T17:15:02.354Z,8.98
2022-11-28T17:17:33.014Z,8.94
2022-11-28T17:20:02.647Z,8.94
2022-11-28T17:22:41.263Z,8.97
2022-11-28T17:25:16.660Z,8.99
2022-11-28T17:27:46.422Z,8.97
2022-11-28T17:30:15.159Z,8.90
2022-11-28T17:32:43.318Z,8.83
2022-11-28T17:35:15.396Z,8.75
2022-11-28T17:37:43.628Z,8.71
2022-11-28T17:40:29.113Z,8.69
2022-11-28T17:42:58.696Z,8.69
2022-11-28T17:45:27.064Z,8.67
2022-11-28T17:47:55.207Z,8.65
2022-11-28T17:50:23.215Z,8.64
2022-11-28T17:52:51.265Z,8.66
2022-11-28T17:55:20.774Z,8.70
2022-11-28T17:57:48.942Z,8.76
2022-11-28T18:00:19.385Z,8.83
2022-11-28T18:02:47.434Z,8.87
2022-11-28T18:05:16.416Z,8.92
2022-11-28T18:07:44.841Z,8.95
2022-11-28T18:10:13.483Z,9.01
2022-11-28T18:12:41.615Z,9.03
2022-11-28T18:15:12.439Z,9.04
2022-11-28T18:17:42.604Z,9.08
2022-11-28T18:20:11.803Z,9.08
2022-11-28T18:22:39.940Z,9.09
2022-11-28T18:25:12.885Z,9.10
2022-11-28T18:27:45.250Z,9.10
2022-11-28T18:30:14.919Z,9.10
2022-11-28T18:32:44.556Z,9.11
2022-11-28T18:35:12.914Z,9.11
2022-11-28T18:37:41.876Z,9.12
2022-11-28T18:40:10.454Z,9.13
2022-11-28T18:42:39.104Z,9.16
2022-11-28T18:45:08.217Z,9.19
2022-11-28T18:47:36.469Z,9.22
2022-11-28T18:50:07.063Z,9.24
2022-11-28T18:52:35.314Z,9.27
2022-11-28T18:55:03.453Z,9.25
2022-11-28T18:57:34.415Z,9.21
2022-11-28T19:00:03.587Z,9.19
2022-11-28T19:02:31.822Z,9.16
2022-11-28T19:04:59.826Z,9.16
2022-11-28T19:07:29.297Z,9.14
2022-11-28T19:09:57.260Z,9.12
2022-11-28T19:12:25.346Z,9.10
2022-11-28T19:14:57.316Z,9.06
2022-11-28T19:17:28.314Z,9.03
2022-11-28T19:19:56.315Z,9.01
2022-11-28T19:22:24.489Z,9.01
2022-11-28T19:24:53.887Z,9.00
2022-11-28T19:27:22.622Z,9.02
2022-11-28T19:29:50.750Z,9.05
2022-11-28T19:32:21.569Z,9.07
2022-11-28T19:34:52.365Z,9.09
2022-11-28T19:37:20.764Z,9.08
2022-11-28T19:39:54.973Z,9.06
2022-11-28T19:42:26.866Z,9.09
2022-11-28T19:44:55.537Z,9.11
2022-11-28T19:47:27.179Z,9.13
2022-11-28T19:49:55.606Z,9.14
2022-11-28T19:52:30.059Z,9.12
2022-11-28T19:54:58.306Z,9.10
2022-11-28T19:57:27.890Z,9.09
2022-11-28T19:59:56.035Z,9.14
2022-11-28T20:02:24.213Z,9.14
2022-11-28T20:04:52.469Z,9.16
2022-11-28T20:07:20.654Z,9.16
2022-11-28T20:09:49.959Z,9.16
2022-11-28T20:12:18.151Z,9.13
2022-11-28T20:14:47.793Z,9.13
2022-11-28T20:17:15.818Z,9.10
2022-11-28T20:19:43.995Z,9.06
2022-11-28T20:22:12.452Z,9.02
2022-11-28T20:24:40.660Z,8.96
2022-11-28T20:27:08.936Z,8.97
2022-11-28T20:29:37.188Z,8.97
2022-11-28T20:32:07.638Z,8.96
2022-11-28T20:34:36.834Z,8.97
2022-11-28T20:37:06.214Z,9.00
2022-11-28T20:39:34.823Z,9.04
2022-11-28T20:42:03.985Z,9.07
2022-11-28T20:44:32.299Z,9.08
2022-11-28T20:47:00.590Z,9.10
2022-11-28T20:49:30.904Z,9.09
2022-11-28T20:51:59.357Z,9.10
2022-11-28T20:54:27.766Z,9.09
2022-11-28T20:57:20.140Z,9.06
2022-11-28T20:59:44.353Z,9.02
2022-11-28T21:02:14.515Z,8.98
2022-11-28T21:04:44.327Z,8.94
2022-11-28T21:07:12.587Z,8.91
2022-11-28T21:09:40.901Z,8.91
2022-11-28T21:12:09.634Z,8.91
2022-11-28T21:14:37.871Z,8.89
2022-11-28T21:17:06.008Z,8.88
2022-11-28T21:19:34.709Z,8.88
2022-11-28T21:22:04.477Z,8.86
2022-11-28T21:24:32.798Z,8.86
2022-11-28T21:27:01.716Z,8.89
2022-11-28T21:29:29.822Z,8.92
2022-11-28T21:31:58.070Z,8.95
2022-11-28T21:34:26.491Z,8.98
2022-11-28T21:36:55.710Z,8.96
2022-11-28T21:39:25.391Z,9.02
2022-11-28T21:41:53.704Z,9.03
2022-11-28T21:44:22.657Z,9.03
2022-11-28T21:46:50.861Z,8.99
2022-11-28T21:49:19.310Z,8.96
2022-11-28T21:51:47.608Z,8.88
2022-11-28T21:54:15.798Z,8.83
2022-11-28T21:56:45.266Z,8.78
2022-11-28T21:59:13.640Z,8.71
2022-11-28T22:01:42.471Z,8.67
2022-11-28T22:04:11.078Z,8.63
2022-11-28T22:06:39.914Z,8.62
2022-11-28T22:09:09.919Z,8.66
2022-11-28T22:11:39.137Z,8.69
2022-11-28T22:14:08.658Z,8.77
2022-11-28T22:16:37.018Z,8.82
2022-11-28T22:19:06.577Z,8.86
2022-11-28T22:21:55.858Z,8.93
2022-11-28T22:24:24.611Z,8.96
2022-11-28T22:26:53.603Z,8.99
2022-11-28T22:29:23.706Z,8.96
2022-11-28T22:31:51.934Z,8.91
2022-11-28T22:34:20.391Z,8.86
2022-11-28T22:36:48.537Z,8.79
2022-11-28T22:39:16.733Z,8.73
2022-11-28T22:41:44.842Z,8.67
2022-11-28T22:44:13.019Z,8.60
2022-11-28T22:46:42.954Z,8.56
2022-11-28T22:49:11.773Z,8.55
2022-11-28T22:51:40.826Z,8.57
2022-11-28T22:54:09.499Z,8.59
2022-11-28T22:56:37.602Z,8.61
2022-11-28T22:59:06.281Z,8.60
2022-11-28T23:01:36.505Z,8.62
2022-11-28T23:04:06.645Z,8.63
2022-11-28T23:06:36.316Z,8.65
2022-11-28T23:09:07.557Z,8.66
2022-11-28T23:11:38.140Z,8.69
2022-11-28T23:14:07.285Z,8.71
2022-11-28T23:16:38.753Z,8.70
2022-11-28T23:19:11.520Z,8.72
2022-11-28T23:21:42.411Z,8.73
2022-11-28T23:24:14.665Z,8.75
2022-11-28T23:26:44.510Z,8.77
2022-11-28T23:29:12.673Z,8.79
2022-11-28T23:31:43.097Z,8.82
2022-11-28T23:34:13.829Z,8.84
2022-11-28T23:36:43.655Z,8.86
2022-11-28T23:39:13.724Z,8.87
2022-11-28T23:41:42.437Z,8.89
2022-11-28T23:44:11.557Z,8.90
2022-11-28T23:46:40.348Z,8.90
2022-11-28T23:49:09.063Z,8.91
2022-11-28T23:51:40.167Z,8.89
2022-11-28T23:54:08.725Z,8.87
2022-11-28T23:56:38.912Z,8.86
2022-11-28T23:59:08.795Z,8.85
